createdAt,value
2018-12-02T00:01:23.351Z,88.47
2018-12-02T00:03:52.394Z,88.76
2018-12-02T00:06:21.379Z,88.83
2018-12-02T00:08:50.412Z,89.18
2018-12-02T00:11:26.179Z,89.03
2018-12-02T00:13:55.178Z,89.08
2018-12-02T00:16:24.212Z,89.15
2018-12-02T00:18:53.321Z,89.29
2018-12-02T00:21:22.741Z,89.38
2018-12-02T00:23:51.914Z,89.58
2018-12-02T00:26:20.927Z,89.54
2018-12-02T00:28:49.943Z,89.75
2018-12-02T00:31:18.979Z,89.71
2018-12-02T00:33:48.000Z,89.28
2018-12-02T00:36:17.042Z,89.42
2018-12-02T00:38:46.055Z,89.23
2018-12-02T00:41:15.977Z,89.57
2018-12-02T00:43:44.991Z,89.47
2018-12-02T00:46:14.029Z,89.65
2018-12-02T00:48:43.089Z,89.84
2018-12-02T00:51:12.120Z,89.70
2018-12-02T00:53:41.125Z,89.45
2018-12-02T00:56:09.146Z,89.92
2018-12-02T00:58:38.178Z,89.71
2018-12-02T01:01:07.666Z,89.29
2018-12-02T01:03:36.642Z,89.50
2018-12-02T01:06:06.145Z,89.69
2018-12-02T01:08:35.182Z,89.73
2018-12-02T01:11:04.174Z,89.75
2018-12-02T01:13:33.176Z,89.59
2018-12-02T01:16:02.193Z,89.74
2018-12-02T01:18:31.219Z,89.51
2018-12-02T01:21:00.200Z,89.70
2018-12-02T01:23:29.236Z,89.55
2018-12-02T01:25:59.187Z,89.47
2018-12-02T01:28:28.181Z,89.34
2018-12-02T01:30:57.213Z,89.60
2018-12-02T01:33:26.219Z,89.57
2018-12-02T01:35:55.234Z,89.71
2018-12-02T01:38:24.250Z,89.86
2018-12-02T01:40:53.418Z,89.80
2018-12-02T01:43:22.404Z,89.72
2018-12-02T01:45:51.391Z,90.00
2018-12-02T01:48:20.355Z,89.74
2018-12-02T01:50:49.335Z,89.73
2018-12-02T01:53:18.351Z,89.80
2018-12-02T01:55:47.342Z,89.91
2018-12-02T01:58:16.336Z,90.07
2018-12-02T02:00:45.324Z,89.87
2018-12-02T02:03:14.292Z,90.37
2018-12-02T02:05:43.293Z,89.84
2018-12-02T02:08:12.279Z,89.95
2018-12-02T02:10:41.254Z,90.01
2018-12-02T02:13:10.261Z,90.30
2018-12-02T02:15:39.294Z,90.17
2018-12-02T02:18:09.497Z,89.92
2018-12-02T02:20:39.070Z,90.35
2018-12-02T02:23:08.038Z,90.47
2018-12-02T02:25:37.223Z,90.76
2018-12-02T02:28:06.274Z,90.61
2018-12-02T02:30:35.270Z,91.06
2018-12-02T02:33:04.310Z,91.02
2018-12-02T02:35:33.359Z,91.08
2018-12-02T02:38:02.332Z,90.98
2018-12-02T02:40:31.331Z,90.87
2018-12-02T02:43:07.586Z,90.77
2018-12-02T02:45:36.576Z,90.46
2018-12-02T02:48:05.699Z,90.45
2018-12-02T02:50:34.684Z,90.66
2018-12-02T02:53:03.693Z,90.10
2018-12-02T02:55:32.669Z,90.15
2018-12-02T02:58:01.697Z,90.13
2018-12-02T03:00:30.856Z,90.61
2018-12-02T03:02:59.857Z,90.33
2018-12-02T03:05:28.876Z,90.28
2018-12-02T03:07:57.845Z,90.14
2018-12-02T03:10:26.997Z,90.33
2018-12-02T03:12:56.009Z,90.03
2018-12-02T03:15:25.028Z,89.79
2018-12-02T03:17:54.062Z,90.39
2018-12-02T03:20:23.419Z,89.94
2018-12-02T03:22:53.481Z,90.01
2018-12-02T03:25:24.318Z,89.98
2018-12-02T03:27:53.364Z,90.02
2018-12-02T03:30:23.091Z,89.86
2018-12-02T03:32:52.188Z,89.60
2018-12-02T03:35:22.931Z,89.69
2018-12-02T03:37:52.308Z,89.77
2018-12-02T03:40:24.103Z,89.70
2018-12-02T03:42:53.365Z,89.47
2018-12-02T03:45:23.511Z,89.45
2018-12-02T03:47:52.532Z,89.06
2018-12-02T03:50:22.425Z,89.29
2018-12-02T03:52:51.407Z,89.10
2018-12-02T03:55:20.399Z,88.89
2018-12-02T03:57:49.437Z,88.60
2018-12-02T04:00:20.194Z,88.63
2018-12-02T04:02:50.386Z,88.65
2018-12-02T04:05:21.469Z,88.37
2018-12-02T04:07:50.982Z,88.13
2018-12-02T04:10:20.280Z,88.08
2018-12-02T04:12:50.219Z,88.14
2018-12-02T04:15:21.139Z,88.04
2018-12-02T04:17:50.134Z,87.76
2018-12-02T04:20:19.542Z,87.89
2018-12-02T04:22:50.513Z,87.90
2018-12-02T04:25:21.400Z,87.24
2018-12-02T04:27:50.430Z,87.46
2018-12-02T04:30:20.164Z,87.59
2018-12-02T04:32:50.108Z,87.16
2018-12-02T04:35:22.127Z,86.93
2018-12-02T04:37:51.178Z,87.33
2018-12-02T04:40:20.169Z,86.95
2018-12-02T04:42:49.223Z,86.95
2018-12-02T04:45:19.009Z,86.81
2018-12-02T04:47:48.134Z,86.72
2018-12-02T04:50:21.015Z,86.18
2018-12-02T04:52:50.025Z,86.05
2018-12-02T04:55:18.999Z,85.71
2018-12-02T04:57:53.059Z,86.04
2018-12-02T05:00:22.055Z,85.80
2018-12-02T05:02:52.012Z,85.77
2018-12-02T05:05:23.859Z,85.73
2018-12-02T05:07:53.345Z,85.96
2018-12-02T05:10:22.801Z,86.08
2018-12-02T05:12:51.861Z,86.74
2018-12-02T05:15:22.245Z,86.96
2018-12-02T05:17:51.235Z,87.17
2018-12-02T05:20:22.054Z,87.32
2018-12-02T05:22:51.907Z,87.28
2018-12-02T05:25:20.883Z,87.85
2018-12-02T05:27:49.893Z,87.87
2018-12-02T05:30:22.666Z,88.29
2018-12-02T05:32:54.141Z,88.40
2018-12-02T05:35:23.133Z,88.41
2018-12-02T05:37:52.125Z,88.80
2018-12-02T05:40:23.947Z,89.13
2018-12-02T05:42:54.256Z,89.21
2018-12-02T05:45:23.407Z,89.12
2018-12-02T05:47:55.160Z,89.23
2018-12-02T05:50:25.082Z,89.34
2018-12-02T05:52:58.260Z,89.85
2018-12-02T05:55:31.346Z,89.86
2018-12-02T05:58:00.310Z,89.77
2018-12-02T06:00:29.304Z,89.81
2018-12-02T06:02:58.310Z,89.94
2018-12-02T06:05:27.296Z,89.63
2018-12-02T06:07:56.274Z,89.64
2018-12-02T06:10:25.259Z,89.56
2018-12-02T06:12:54.268Z,89.61
2018-12-02T06:15:23.262Z,89.43
2018-12-02T06:17:52.261Z,89.28
2018-12-02T06:20:23.338Z,88.62
2018-12-02T06:22:55.069Z,88.60
2018-12-02T06:25:24.091Z,88.68
2018-12-02T06:27:53.102Z,88.16
2018-12-02T06:30:25.069Z,87.90
2018-12-02T06:33:04.342Z,87.83
2018-12-02T06:35:33.344Z,87.93
2018-12-02T06:38:03.674Z,87.81
2018-12-02T06:40:32.654Z,87.44
2018-12-02T06:43:01.649Z,87.79
2018-12-02T06:45:30.614Z,87.63
2018-12-02T06:47:59.615Z,87.74
2018-12-02T06:50:28.640Z,87.85
2018-12-02T06:52:58.094Z,87.81
2018-12-02T06:55:32.342Z,87.88
2018-12-02T06:58:10.647Z,87.95
2018-12-02T07:01:53.464Z,88.71
2018-12-02T07:04:27.432Z,89.07
2018-12-02T07:06:56.684Z,89.52
2018-12-02T07:09:25.670Z,89.56
2018-12-02T07:11:54.713Z,89.69
2018-12-02T07:14:23.722Z,90.02
2018-12-02T07:16:52.752Z,90.11
2018-12-02T07:19:26.250Z,90.27
2018-12-02T07:21:59.642Z,90.03
2018-12-02T07:24:28.692Z,90.54
2018-12-02T07:26:59.543Z,90.64
2018-12-02T07:29:28.564Z,90.84
2018-12-02T07:31:57.574Z,90.69
2018-12-02T07:34:27.215Z,90.33
2018-12-02T07:36:57.939Z,90.48
2018-12-02T07:39:42.812Z,90.99
2018-12-02T07:42:11.846Z,90.72
2018-12-02T07:44:40.862Z,90.87
2018-12-02T07:47:09.851Z,90.76
2018-12-02T07:49:38.966Z,91.01
2018-12-02T07:52:07.964Z,91.08
2018-12-02T07:54:37.311Z,91.10
2018-12-02T07:57:06.367Z,90.86
2018-12-02T07:59:35.354Z,90.94
2018-12-02T08:02:04.389Z,90.76
2018-12-02T08:04:33.428Z,91.06
2018-12-02T08:07:02.962Z,91.08
2018-12-02T08:09:32.007Z,90.99
2018-12-02T08:12:01.046Z,91.02
2018-12-02T08:14:30.058Z,90.87
2018-12-02T08:16:59.084Z,91.03
2018-12-02T08:19:34.641Z,90.90
2018-12-02T08:22:03.657Z,91.16
2018-12-02T08:24:32.655Z,90.96
2018-12-02T08:27:01.672Z,91.08
2018-12-02T08:29:30.702Z,91.38
2018-12-02T08:31:59.711Z,90.93
2018-12-02T08:34:28.774Z,91.24
2018-12-02T08:36:57.797Z,91.09
2018-12-02T08:39:26.785Z,91.07
2018-12-02T08:41:55.851Z,91.06
2018-12-02T08:44:24.859Z,90.79
2018-12-02T08:46:54.051Z,91.12
2018-12-02T08:49:23.117Z,91.45
2018-12-02T08:51:52.151Z,91.07
2018-12-02T08:54:21.183Z,91.27
2018-12-02T08:56:50.753Z,91.31
2018-12-02T08:59:19.805Z,90.86
2018-12-02T09:01:48.913Z,90.99
2018-12-02T09:04:18.767Z,90.85
2018-12-02T09:06:47.836Z,91.19
2018-12-02T09:09:16.876Z,90.71
2018-12-02T09:11:45.855Z,90.99
2018-12-02T09:14:14.835Z,90.85
2018-12-02T09:16:43.919Z,90.58
2018-12-02T09:19:12.931Z,90.63
2018-12-02T09:21:41.927Z,90.72
2018-12-02T09:24:10.957Z,90.96
2018-12-02T09:26:40.104Z,91.13
2018-12-02T09:29:09.177Z,90.80
2018-12-02T09:31:38.206Z,91.16
2018-12-02T09:34:13.857Z,90.84
2018-12-02T09:36:42.845Z,91.03
2018-12-02T09:39:11.844Z,91.00
2018-12-02T09:41:41.446Z,91.12
2018-12-02T09:44:10.836Z,91.00
2018-12-02T09:46:39.913Z,91.00
2018-12-02T09:49:08.906Z,90.64
2018-12-02T09:51:37.964Z,90.68
2018-12-02T09:54:06.989Z,91.06
2018-12-02T09:56:35.993Z,90.81
2018-12-02T09:59:05.055Z,90.72
2018-12-02T10:01:34.024Z,91.05
2018-12-02T10:04:03.045Z,90.81
2018-12-02T10:06:32.092Z,91.04
2018-12-02T10:09:07.596Z,91.22
2018-12-02T10:11:36.657Z,91.14
2018-12-02T10:14:05.840Z,90.94
2018-12-02T10:16:34.882Z,91.32
2018-12-02T10:19:05.083Z,91.38
2018-12-02T10:21:34.102Z,91.24
2018-12-02T10:24:03.117Z,91.16
2018-12-02T10:26:32.126Z,91.25
2018-12-02T10:29:01.107Z,91.05
2018-12-02T10:31:30.114Z,90.67
2018-12-02T10:33:59.127Z,90.55
2018-12-02T10:36:28.150Z,90.76
2018-12-02T10:38:57.149Z,91.19
2018-12-02T10:41:26.286Z,90.96
2018-12-02T10:43:56.777Z,91.06
2018-12-02T10:46:25.809Z,90.99
2018-12-02T10:48:54.809Z,90.57
2018-12-02T10:51:23.863Z,90.72
2018-12-02T10:53:52.874Z,90.57
2018-12-02T10:56:21.900Z,90.70
2018-12-02T10:58:50.935Z,90.69
2018-12-02T11:01:20.017Z,90.64
2018-12-02T11:03:49.186Z,90.85
2018-12-02T11:06:18.196Z,91.07
2018-12-02T11:08:47.201Z,90.73
2018-12-02T11:11:16.620Z,90.95
2018-12-02T11:13:45.649Z,90.81
2018-12-02T11:16:14.707Z,91.58
2018-12-02T11:18:50.483Z,90.80
2018-12-02T11:21:19.522Z,91.43
2018-12-02T11:23:48.531Z,91.30
2018-12-02T11:26:17.561Z,91.45
2018-12-02T11:28:46.556Z,91.53
2018-12-02T11:31:15.605Z,91.46
2018-12-02T11:33:44.703Z,91.52
2018-12-02T11:36:13.764Z,91.98
2018-12-02T11:38:43.147Z,92.17
2018-12-02T11:41:13.922Z,92.00
2018-12-02T11:43:42.945Z,91.90
2018-12-02T11:46:11.962Z,91.67
2018-12-02T11:48:40.964Z,91.43
2018-12-02T11:51:09.955Z,91.49
2018-12-02T11:53:39.004Z,91.55
2018-12-02T11:56:08.031Z,91.69
2018-12-02T11:58:37.342Z,91.83
2018-12-02T12:01:06.591Z,91.52
2018-12-02T12:03:35.674Z,91.86
2018-12-02T12:06:04.905Z,91.39
2018-12-02T12:08:33.989Z,91.29
2018-12-02T12:11:03.070Z,91.30
2018-12-02T12:13:32.139Z,91.21
2018-12-02T12:16:01.170Z,91.16
2018-12-02T12:18:30.208Z,91.15
2018-12-02T12:20:59.312Z,91.00
2018-12-02T12:23:28.334Z,91.25
2018-12-02T12:25:57.690Z,91.42
2018-12-02T12:28:26.718Z,91.62
2018-12-02T12:30:55.826Z,91.54
2018-12-02T12:33:24.869Z,91.16
2018-12-02T12:35:53.928Z,91.36
2018-12-02T12:38:23.059Z,91.12
2018-12-02T12:40:52.530Z,91.91
2018-12-02T12:43:27.234Z,91.67
2018-12-02T12:45:56.415Z,91.76
2018-12-02T12:48:25.531Z,91.72
2018-12-02T12:50:54.636Z,92.28
2018-12-02T12:53:23.664Z,92.04
2018-12-02T12:55:52.793Z,92.01
2018-12-02T12:58:22.117Z,92.31
2018-12-02T13:00:51.315Z,91.95
2018-12-02T13:03:20.363Z,92.50
2018-12-02T13:05:49.469Z,92.27
2018-12-02T13:08:18.970Z,92.28
2018-12-02T13:10:48.023Z,92.28
2018-12-02T13:13:17.055Z,92.39
2018-12-02T13:15:46.125Z,92.19
2018-12-02T13:18:15.230Z,91.99
2018-12-02T13:20:55.527Z,92.40
2018-12-02T13:23:24.654Z,92.32
2018-12-02T13:25:54.328Z,92.36
2018-12-02T13:28:23.379Z,92.06
2018-12-02T13:30:52.427Z,92.23
2018-12-02T13:33:21.465Z,92.08
2018-12-02T13:35:50.499Z,92.45
2018-12-02T13:38:19.651Z,92.57
2018-12-02T13:40:50.940Z,92.33
2018-12-02T13:43:26.111Z,92.09
2018-12-02T13:45:55.803Z,92.07
2018-12-02T13:48:28.391Z,92.20
2018-12-02T13:51:02.750Z,92.18
2018-12-02T13:53:36.251Z,92.31
2018-12-02T13:59:35.691Z,92.54
2018-12-02T14:02:05.348Z,92.38
2018-12-02T14:04:35.389Z,92.70
2018-12-02T14:07:04.968Z,92.31
2018-12-02T14:09:34.052Z,92.78
2018-12-02T14:12:14.889Z,92.65
2018-12-02T14:14:53.613Z,92.44
2018-12-02T14:17:33.587Z,92.63
2018-12-02T14:20:02.622Z,92.63
2018-12-02T14:22:31.661Z,92.77
2018-12-02T14:25:02.944Z,92.37
2018-12-02T14:27:31.723Z,92.48
2018-12-02T14:30:01.702Z,92.26
2018-12-02T14:35:24.790Z,92.35
2018-12-02T14:37:53.963Z,92.16
2018-12-02T14:43:15.391Z,92.32
2018-12-02T14:45:44.492Z,92.41
2018-12-02T14:48:13.736Z,92.56
2018-12-02T14:50:42.818Z,92.44
2018-12-02T14:53:11.841Z,92.56
2018-12-02T14:55:40.965Z,92.36
2018-12-02T14:58:10.111Z,92.04
2018-12-02T15:00:39.237Z,92.11
2018-12-02T15:03:14.870Z,92.43
2018-12-02T15:05:44.786Z,92.12
2018-12-02T15:08:14.251Z,92.41
2018-12-02T15:10:43.355Z,92.43
2018-12-02T15:13:12.441Z,92.50
2018-12-02T15:15:42.002Z,92.24
2018-12-02T15:18:14.353Z,91.88
2018-12-02T15:20:43.450Z,92.29
2018-12-02T15:23:14.591Z,92.24
2018-12-02T15:25:44.051Z,92.38
2018-12-02T15:28:13.073Z,92.46
2018-12-02T15:30:42.156Z,92.49
2018-12-02T15:33:11.334Z,92.49
2018-12-02T15:35:40.435Z,92.09
2018-12-02T15:38:09.858Z,92.45
2018-12-02T15:40:38.955Z,92.55
2018-12-02T15:43:08.253Z,92.25
2018-12-02T15:45:37.322Z,92.70
2018-12-02T15:48:09.163Z,92.81
2018-12-02T15:50:38.288Z,92.73
2018-12-02T15:53:07.541Z,92.35
2018-12-02T15:55:37.130Z,92.58
2018-12-02T15:58:09.518Z,92.60
2018-12-02T16:00:40.355Z,92.49
2018-12-02T16:03:09.389Z,92.34
2018-12-02T16:05:38.434Z,92.55
2018-12-02T16:08:08.226Z,92.57
2018-12-02T16:10:37.342Z,92.31
2018-12-02T16:13:09.321Z,92.20
2018-12-02T16:15:45.261Z,92.29
2018-12-02T16:18:18.757Z,92.30
2018-12-02T16:20:53.602Z,92.33
2018-12-02T16:23:24.421Z,92.40
2018-12-02T16:25:54.638Z,92.42
2018-12-02T16:28:24.027Z,92.47
2018-12-02T16:30:56.514Z,92.33
2018-12-02T16:33:25.573Z,92.47
2018-12-02T16:35:55.106Z,92.34
2018-12-02T16:38:24.165Z,92.39
2018-12-02T16:40:53.377Z,92.26
2018-12-02T16:43:22.461Z,92.05
2018-12-02T16:45:51.542Z,92.06
2018-12-02T16:48:20.701Z,91.67
2018-12-02T16:50:49.798Z,91.92
2018-12-02T16:53:21.794Z,91.63
2018-12-02T16:56:08.535Z,91.65
2018-12-02T16:58:53.541Z,91.24
2018-12-02T17:01:23.987Z,91.19
2018-12-02T17:03:57.032Z,91.12
2018-12-02T17:06:26.163Z,91.36
2018-12-02T17:09:11.517Z,90.84
2018-12-02T17:11:41.178Z,91.02
2018-12-02T17:14:10.320Z,90.84
2018-12-02T17:16:39.453Z,91.03
2018-12-02T17:19:08.650Z,90.52
2018-12-02T17:21:37.798Z,90.58
2018-12-02T17:24:08.352Z,90.57
2018-12-02T17:26:37.617Z,90.54
2018-12-02T17:29:09.931Z,90.33
2018-12-02T17:31:42.728Z,90.18
2018-12-02T17:34:11.874Z,89.77
2018-12-02T17:36:40.945Z,89.57
2018-12-02T17:39:14.929Z,89.91
2018-12-02T17:41:46.534Z,89.41
2018-12-02T17:44:15.725Z,89.59
2018-12-02T17:46:44.965Z,89.69
2018-12-02T17:49:14.540Z,89.25
2018-12-02T17:51:43.747Z,89.07
2018-12-02T17:54:12.885Z,88.68
2018-12-02T17:56:42.038Z,88.63
2018-12-02T17:59:11.172Z,88.55
2018-12-02T18:01:40.333Z,88.78
2018-12-02T18:04:09.480Z,88.71
2018-12-02T18:06:38.575Z,88.34
2018-12-02T18:09:11.125Z,88.68
2018-12-02T18:11:40.430Z,88.59
2018-12-02T18:14:09.678Z,87.99
2018-12-02T18:16:38.813Z,88.10
2018-12-02T18:19:08.078Z,88.21
2018-12-02T18:21:37.350Z,88.29
2018-12-02T18:24:12.070Z,88.08
2018-12-02T18:26:58.078Z,88.07
2018-12-02T18:29:30.677Z,88.04
2018-12-02T18:32:02.813Z,88.10
2018-12-02T18:34:37.722Z,87.98
2018-12-02T18:37:35.380Z,88.11
2018-12-02T18:40:17.452Z,87.91
2018-12-02T18:42:46.763Z,87.66
2018-12-02T18:45:17.591Z,87.97
2018-12-02T18:47:46.982Z,87.97
2018-12-02T18:50:16.353Z,87.75
2018-12-02T18:52:45.656Z,87.64
2018-12-02T18:55:14.832Z,87.98
2018-12-02T18:57:45.064Z,87.65
2018-12-02T19:00:20.484Z,87.66
2018-12-02T19:02:51.287Z,87.70
2018-12-02T19:05:53.347Z,87.70
2018-12-02T19:08:31.182Z,87.57
2018-12-02T19:11:08.544Z,87.67
2018-12-02T19:13:43.500Z,87.70
2018-12-02T19:16:16.782Z,87.41
2018-12-02T19:18:52.136Z,88.09
2018-12-02T19:21:27.696Z,88.35
2018-12-02T19:24:00.442Z,87.98
2018-12-02T19:26:29.826Z,88.49
2018-12-02T19:29:01.559Z,88.50
2018-12-02T19:31:30.904Z,89.02
2018-12-02T19:36:55.648Z,89.08
2018-12-02T19:39:42.539Z,88.78
2018-12-02T19:58:44.987Z,89.30
2018-12-02T20:01:15.465Z,89.63
2018-12-02T20:03:50.323Z,89.72
2018-12-02T20:06:20.889Z,89.85
2018-12-02T20:09:00.568Z,89.39
2018-12-02T20:11:30.060Z,89.66
2018-12-02T20:14:00.818Z,89.84
2018-12-02T20:16:33.712Z,89.61
2018-12-02T20:19:07.896Z,88.79
2018-12-02T20:21:37.569Z,89.07
2018-12-02T20:27:09.610Z,89.27
2018-12-02T20:29:43.673Z,89.60
2018-12-02T20:32:16.115Z,89.63
2018-12-02T20:34:45.492Z,89.65
2018-12-02T20:37:15.704Z,90.23
2018-12-02T20:39:45.363Z,90.30
2018-12-02T20:43:47.463Z,90.89
2018-12-02T20:46:17.443Z,91.35
2018-12-02T20:48:47.384Z,91.30
2018-12-02T20:51:16.796Z,91.62
2018-12-02T20:53:46.125Z,91.62
2018-12-02T20:56:15.423Z,91.02
2018-12-02T20:58:44.809Z,91.18
2018-12-02T21:01:14.277Z,90.81
2018-12-02T21:03:46.361Z,91.05
2018-12-02T21:06:21.054Z,90.98
2018-12-02T21:08:54.909Z,90.71
2018-12-02T21:11:24.157Z,90.79
2018-12-02T21:13:53.614Z,90.98
2018-12-02T21:16:22.866Z,90.87
2018-12-02T21:18:56.847Z,90.89
2018-12-02T21:21:26.006Z,90.73
2018-12-02T21:23:55.161Z,90.83
2018-12-02T21:26:24.478Z,91.02
2018-12-02T21:28:53.633Z,90.98
2018-12-02T21:31:22.753Z,90.80
2018-12-02T21:33:51.943Z,91.02
2018-12-02T21:36:21.233Z,90.91
2018-12-02T21:38:50.401Z,90.78
2018-12-02T21:41:19.608Z,90.94
2018-12-02T21:43:48.816Z,90.92
2018-12-02T21:46:17.941Z,90.87
2018-12-02T21:48:47.047Z,91.16
2018-12-02T21:51:16.922Z,90.75
2018-12-02T21:53:46.015Z,90.74
2018-12-02T21:56:15.101Z,91.14
2018-12-02T21:58:44.212Z,90.72
2018-12-02T22:01:14.899Z,90.68
2018-12-02T22:03:44.109Z,90.93
2018-12-02T22:06:13.309Z,91.27
2018-12-02T22:08:42.537Z,91.02
2018-12-02T22:11:11.896Z,90.62
2018-12-02T22:13:43.545Z,90.82
2018-12-02T22:16:10.703Z,90.62
2018-12-02T22:18:40.257Z,90.65
2018-12-02T22:21:09.420Z,90.92
2018-12-02T22:23:38.518Z,91.00
2018-12-02T22:26:07.587Z,91.02
2018-12-02T22:28:36.672Z,90.61
2018-12-02T22:31:06.162Z,90.87
2018-12-02T22:33:35.255Z,90.20
2018-12-02T22:36:04.636Z,90.19
2018-12-02T22:38:33.695Z,90.20
2018-12-02T22:41:02.751Z,90.34
2018-12-02T22:43:31.838Z,90.54
2018-12-02T22:46:00.917Z,90.36
2018-12-02T22:48:30.064Z,90.33
2018-12-02T22:51:00.270Z,90.22
2018-12-02T22:53:29.374Z,90.14
2018-12-02T22:55:58.434Z,90.26
2018-12-02T22:58:27.487Z,90.44
2018-12-02T23:01:01.968Z,90.47
2018-12-02T23:03:31.024Z,90.36
2018-12-02T23:06:00.170Z,90.72
2018-12-02T23:08:29.216Z,90.72
2018-12-02T23:10:58.390Z,90.58
2018-12-02T23:13:27.480Z,90.38
2018-12-02T23:15:56.535Z,90.59
2018-12-02T23:18:25.624Z,90.72
2018-12-02T23:20:54.647Z,90.59
2018-12-02T23:23:24.399Z,90.79
2018-12-02T23:25:53.474Z,90.55
2018-12-02T23:28:22.576Z,90.34
2018-12-02T23:30:51.639Z,90.26
2018-12-02T23:33:20.727Z,90.10
2018-12-02T23:35:49.779Z,90.38
2018-12-02T23:38:18.797Z,90.56
2018-12-02T23:40:47.917Z,90.16
2018-12-02T23:43:16.963Z,90.59
2018-12-02T23:45:46.673Z,90.48
2018-12-02T23:48:15.742Z,90.67
2018-12-02T23:50:44.832Z,90.60
2018-12-02T23:53:13.848Z,90.41
2018-12-02T23:55:44.583Z,90.57
2018-12-02T23:58:13.629Z,90.57
